createdAt,value
2023-04-17T00:05:45.866Z,23.6
2023-04-17T00:11:52.465Z,23.5
2023-04-17T00:17:44.108Z,23.9
2023-04-17T00:23:20.407Z,26.4
2023-04-17T00:28:41.879Z,23.8
2023-04-17T00:34:34.009Z,23.7
2023-04-17T00:40:25.111Z,23.7
2023-04-17T00:46:16.938Z,23.5
2023-04-17T00:52:08.630Z,23.9
2023-04-17T00:57:59.965Z,26.6
2023-04-17T01:03:55.110Z,23.8
2023-04-17T01:09:31.962Z,23.7
2023-04-17T01:15:06.899Z,23.7
2023-04-17T01:20:59.256Z,23.5
2023-04-17T01:26:50.655Z,24
2023-04-17T01:32:42.050Z,26.6
2023-04-17T01:38:18.486Z,23.8
2023-04-17T01:44:09.989Z,23.8
2023-04-17T01:49:46.326Z,23.7
2023-04-17T01:55:38.201Z,23.5
2023-04-17T02:01:14.601Z,24.1
2023-04-17T02:06:51.855Z,26.6
2023-04-17T02:12:44.489Z,23.8
2023-04-17T02:18:20.503Z,23.8
2023-04-17T02:23:56.750Z,23.7
2023-04-17T02:29:48.906Z,23.6
2023-04-17T02:35:40.487Z,24
2023-04-17T02:41:31.613Z,26.6
2023-04-17T02:47:23.897Z,23.8
2023-04-17T02:53:00.014Z,23.8
2023-04-17T02:58:51.685Z,23.7
2023-04-17T03:04:45.302Z,23.5
2023-04-17T03:10:37.257Z,24.1
2023-04-17T03:16:30.697Z,26.8
2023-04-17T03:22:23.250Z,23.8
2023-04-17T03:27:58.965Z,23.8
2023-04-17T03:33:52.987Z,23.8
2023-04-17T03:39:30.103Z,23.5
2023-04-17T03:45:06.488Z,24.1
2023-04-17T03:50:57.833Z,26.6
2023-04-17T03:56:34.432Z,23.8
2023-04-17T04:02:10.809Z,23.8
2023-04-17T04:08:03.008Z,23.8
2023-04-17T04:13:55.306Z,23.5
2023-04-17T04:19:31.657Z,23.9
2023-04-17T04:25:08.586Z,26.2
2023-04-17T04:31:01.476Z,23.9
2023-04-17T04:36:23.142Z,23.8
2023-04-17T04:42:02.044Z,23.8
2023-04-17T04:47:23.449Z,23.6
2023-04-17T04:52:59.520Z,23.5
2023-04-17T04:58:18.982Z,25.4
2023-04-17T05:03:58.129Z,24.4
2023-04-17T05:09:35.390Z,23.8
2023-04-17T05:15:10.409Z,23.8
2023-04-17T05:21:05.246Z,23.6
2023-04-17T05:26:56.630Z,23.4
2023-04-17T05:32:32.374Z,25.1
2023-04-17T05:38:09.270Z,24.8
2023-04-17T05:43:48.505Z,23.8
2023-04-17T05:49:24.308Z,23.8
2023-04-17T05:55:01.117Z,23.6
2023-04-17T06:00:52.271Z,23.4
2023-04-17T06:06:32.243Z,24.8
2023-04-17T06:12:11.322Z,25.5
2023-04-17T06:17:47.388Z,23.8
2023-04-17T06:23:24.717Z,23.8
2023-04-17T06:29:00.948Z,23.7
2023-04-17T06:34:41.455Z,23.4
2023-04-17T06:40:21.521Z,24.3
2023-04-17T06:45:43.001Z,26.9
2023-04-17T06:51:19.361Z,23.8
2023-04-17T06:56:54.671Z,23.8
2023-04-17T07:02:35.165Z,23.7
2023-04-17T07:07:57.365Z,23.5
2023-04-17T07:13:17.603Z,23.9
2023-04-17T07:18:55.709Z,26.2
2023-04-17T07:24:32.581Z,23.9
2023-04-17T07:30:08.691Z,23.8
2023-04-17T07:35:46.304Z,23.7
2023-04-17T07:41:25.669Z,23.5
2023-04-17T07:47:04.235Z,23.3
2023-04-17T07:52:29.257Z,23
2023-04-17T07:58:08.499Z,23.3
2023-04-17T08:03:30.294Z,25.7
2023-04-17T08:09:09.617Z,23.4
2023-04-17T08:14:42.965Z,23.4
2023-04-17T08:20:19.376Z,23.3
2023-04-17T08:25:59.577Z,23
2023-04-17T08:31:38.347Z,22.7
2023-04-17T08:37:47.889Z,22.4
2023-04-17T08:43:25.828Z,22.1
2023-04-17T08:49:18.566Z,24.4
2023-04-17T08:55:09.780Z,23.5
2023-04-17T09:00:31.463Z,23.4
2023-04-17T09:06:10.875Z,23.3
2023-04-17T09:11:46.520Z,23.1
2023-04-17T09:17:40.128Z,22.8
2023-04-17T09:23:01.591Z,22.5
2023-04-17T09:28:21.667Z,22.2
2023-04-17T09:33:44.130Z,21.9
2023-04-17T09:39:23.310Z,23.8
2023-04-17T09:45:14.954Z,23.9
2023-04-17T09:51:08.167Z,23.3
2023-04-17T09:56:45.148Z,23.3
2023-04-17T10:02:37.767Z,23.1
2023-04-17T10:08:31.197Z,22.8
2023-04-17T10:14:23.211Z,22.5
2023-04-17T10:20:16.739Z,22.2
2023-04-17T10:26:10.454Z,21.9
2023-04-17T10:32:04.801Z,24.2
2023-04-17T10:37:58.341Z,23.5
2023-04-17T10:43:36.261Z,23.3
2023-04-17T10:49:30.079Z,23.2
2023-04-17T10:55:21.838Z,23
2023-04-17T11:01:17.694Z,22.8
2023-04-17T11:06:56.196Z,22.4
2023-04-17T11:12:49.771Z,22.1
2023-04-17T11:18:27.264Z,22.6
2023-04-17T11:24:04.115Z,25.2
2023-04-17T11:29:40.358Z,23.2
2023-04-17T11:35:02.323Z,23.2
2023-04-17T11:40:39.058Z,23.1
2023-04-17T11:46:16.073Z,22.9
2023-04-17T11:52:08.624Z,22.7
2023-04-17T11:57:59.889Z,22.4
2023-04-17T12:03:53.768Z,24.3
2023-04-17T12:09:32.252Z,23.4
2023-04-17T12:15:24.198Z,23.2
2023-04-17T12:21:00.675Z,23.1
2023-04-17T12:26:52.484Z,23
2023-04-17T12:32:29.442Z,22.8
2023-04-17T12:38:05.398Z,22.5
2023-04-17T12:43:55.498Z,22.3
2023-04-17T12:49:49.276Z,21.9
2023-04-17T12:55:40.593Z,21.6
2023-04-17T13:01:33.036Z,21.4
2023-04-17T13:12:46.790Z,20.9
2023-04-17T13:18:40.646Z,20.7
2023-04-17T13:24:32.569Z,20.4
2023-04-17T13:30:25.813Z,20.2
2023-04-17T13:36:21.340Z,20
2023-04-17T13:41:58.190Z,19.8
2023-04-17T13:47:51.552Z,19.6
2023-04-17T13:53:45.147Z,19.4
2023-04-17T13:59:36.100Z,19.3
2023-04-17T14:05:16.982Z,19.1
2023-04-17T14:10:56.920Z,18.9
2023-04-17T14:16:48.227Z,18.8
2023-04-17T14:27:53.659Z,18.6
2023-04-17T14:33:30.087Z,18.4
2023-04-17T14:39:26.491Z,18.3
2023-04-17T14:45:20.310Z,18.2
2023-04-17T14:51:23.562Z,18.1
2023-04-17T14:57:13.875Z,18
2023-04-17T15:03:06.871Z,17.9
2023-04-17T15:08:43.867Z,17.8
2023-04-17T15:14:35.566Z,17.8
2023-04-17T15:20:27.999Z,17.7
2023-04-17T15:26:19.633Z,17.6
2023-04-17T15:32:10.455Z,17.5
2023-04-17T15:38:02.101Z,17.4
2023-04-17T15:43:55.618Z,17.4
2023-04-17T15:50:11.976Z,17.3
2023-04-17T15:56:06.327Z,17.3
2023-04-17T16:01:57.506Z,17.3
2023-04-17T16:07:35.248Z,17.2
2023-04-17T16:13:27.314Z,17.1
2023-04-17T16:19:18.596Z,17.1
2023-04-17T16:25:10.235Z,17.1
2023-04-17T16:30:47.352Z,17.1
2023-04-17T16:48:37.170Z,16.9
2023-04-17T16:54:30.320Z,16.9
2023-04-17T17:00:20.907Z,16.9
2023-04-17T17:06:14.469Z,16.8
2023-04-17T17:11:19.880Z,16.8
2023-04-17T17:16:55.751Z,16.8
2023-04-17T17:22:47.764Z,16.8
2023-04-17T17:28:22.485Z,16.8
2023-04-17T17:34:03.493Z,16.7
2023-04-17T17:39:47.582Z,16.7
2023-04-17T17:45:39.087Z,16.7
2023-04-17T17:51:32.977Z,16.6
2023-04-17T17:57:11.717Z,16.6
2023-04-17T18:03:02.274Z,16.6
2023-04-17T18:08:40.099Z,16.6
2023-04-17T18:14:01.565Z,16.6
2023-04-17T18:19:38.254Z,16.6
2023-04-17T18:25:13.743Z,16.5
2023-04-17T18:30:50.144Z,16.6
2023-04-17T18:36:42.032Z,16.5
2023-04-17T18:42:20.544Z,16.5
2023-04-17T18:47:57.403Z,21.2
2023-04-17T18:53:39.593Z,24.4
2023-04-17T18:59:16.152Z,22.7
2023-04-17T19:04:23.211Z,22.6
2023-04-17T19:10:16.610Z,22.6
2023-04-17T19:16:09.261Z,22.5
2023-04-17T19:22:02.159Z,22.3
2023-04-17T19:27:55.364Z,22.2
2023-04-17T19:33:32.585Z,21.9
2023-04-17T19:38:54.968Z,21.8
2023-04-17T19:45:02.074Z,23.8
2023-04-17T19:50:55.392Z,23.1
2023-04-17T19:56:02.644Z,22.6
2023-04-17T20:01:58.544Z,22.7
2023-04-17T20:07:20.956Z,22.6
2023-04-17T20:13:13.203Z,22.4
2023-04-17T20:18:50.073Z,22.3
2023-04-17T20:24:43.906Z,22.1
2023-04-17T20:30:36.042Z,21.8
2023-04-17T20:36:28.443Z,22.8
2023-04-17T20:41:48.790Z,25.5
2023-04-17T20:47:52.816Z,22.7
2023-04-17T20:53:46.028Z,22.8
2023-04-17T20:59:36.903Z,22.7
2023-04-17T21:05:28.254Z,22.6
2023-04-17T21:11:04.902Z,22.3
2023-04-17T21:16:25.407Z,22.1
2023-04-17T21:22:02.259Z,21.9
2023-04-17T21:27:37.781Z,21.7
2023-04-17T21:33:13.928Z,23.9
2023-04-17T21:38:50.317Z,23.5
2023-04-17T21:44:43.970Z,22.8
2023-04-17T21:50:35.086Z,22.9
2023-04-17T21:56:27.381Z,22.7
2023-04-17T22:02:18.295Z,22.6
2023-04-17T22:08:21.220Z,22.3
2023-04-17T22:13:26.834Z,22.1
2023-04-17T22:19:18.908Z,21.8
2023-04-17T22:25:10.102Z,22.4
2023-04-17T22:30:46.629Z,25
2023-04-17T22:36:22.100Z,22.9
2023-04-17T22:42:13.064Z,22.9
2023-04-17T22:47:35.204Z,22.9
2023-04-17T22:53:11.810Z,22.8
2023-04-17T22:58:58.080Z,22.5
2023-04-17T23:04:51.121Z,22.3
2023-04-17T23:10:27.264Z,22
2023-04-17T23:15:47.541Z,21.8
2023-04-17T23:21:24.980Z,22.9
2023-04-17T23:26:50.732Z,25.6
2023-04-17T23:32:26.680Z,22.9
2023-04-17T23:38:03.613Z,22.9
2023-04-17T23:43:39.912Z,22.9
2023-04-17T23:49:32.146Z,22.7
2023-04-17T23:55:24.406Z,22.5
